Terminal Aerodrome Forecast
Issued by NWS

Home | Current Version | Previous Version | Text Only | Print | Product List | Glossary On
Versions: 1 2 3 4 5 6 7 8 9 10 11 12 13 14 15 16 17 18 19 20 21 22 23 24 25 26 27 28 29 30 31 32
000
FTUS46 KOTX 121916 AAA
TAFMWH
TAF AMD
KMWH 121916Z 1219/1318 16005KT 4SM BR BKN004 OVC020
     FM122100 18005KT P6SM FEW007 SCT020 BKN150
     FM130100 23005KT P6SM VCSH BKN040 BKN060 BKN120
     FM130600 22007KT P6SM BKN025=

USA.gov is the U.S. government's official web portal to all federal, state and local government web resources and services.